Time;durP1;ratioP1;P1;durP2;ratioP2;P2;SDS_P1;SDS_P2;PMS_P1;PMS_P2;Temp;Humidity;BMP_temperature;BMP_pressure;BME280_temperature;BME280_humidity;BME280_pressure;Samples;Min_cycle;Max_cycle;Signal;HPM_P1;HPM_P2
2022/10/28 00:01:21;;;;;;;25.17;14.53;;;10.40;99.90;9.70;101192;;;;572240;247;24128;-83
2022/10/28 00:03:54;;;;;;;18.23;12.83;;;10.40;99.90;9.70;101187;;;;561835;256;24175;-80
2022/10/28 00:06:28;;;;;;;23.90;13.93;;;10.40;99.90;9.70;101186;;;;551093;256;24154;-81
2022/10/28 00:08:59;;;;;;;21.63;13.57;;;10.40;99.90;9.70;101182;;;;563091;251;24184;-83
2022/10/28 00:11:30;;;;;;;23.20;13.07;;;10.40;99.90;9.70;101193;;;;575976;248;24242;-82
2022/10/28 00:13:58;;;;;;;23.97;14.13;;;10.40;99.90;9.70;101187;;;;552344;256;24176;-80
2022/10/28 00:16:26;;;;;;;21.43;12.90;;;10.40;99.90;9.60;101186;;;;570853;251;24135;-81
2022/10/28 00:18:54;;;;;;;24.17;14.80;;;10.40;99.90;9.70;101181;;;;571178;251;24122;-82
2022/10/28 00:21:22;;;;;;;27.67;13.83;;;10.40;99.90;9.70;101176;;;;552296;256;24164;-82
2022/10/28 00:23:55;;;;;;;20.97;13.97;;;10.40;99.90;9.70;101165;;;;562531;251;24153;-81
2022/10/28 00:26:19;;;;;;;20.33;13.17;;;10.40;99.90;9.80;101172;;;;569012;252;24121;-81
2022/10/28 00:28:53;;;;;;;19.07;12.33;;;10.50;99.90;9.80;101175;;;;563679;250;24157;-82
2022/10/28 00:31:18;;;;;;;18.57;13.60;;;10.50;99.90;9.80;101171;;;;562171;251;24181;-82
2022/10/28 00:33:50;;;;;;;20.23;12.87;;;10.50;99.90;9.80;101166;;;;570075;248;24134;-82
2022/10/28 00:36:26;;;;;;;20.70;13.83;;;10.50;99.90;9.80;101173;;;;552256;256;24160;-80
2022/10/28 00:38:57;;;;;;;24.27;14.27;;;10.60;99.90;9.90;101170;;;;562914;251;24142;-82
2022/10/28 00:41:28;;;;;;;22.23;14.13;;;10.60;99.90;9.90;101166;;;;570586;248;24117;-80
2022/10/28 00:43:56;;;;;;;26.47;13.90;;;10.60;99.90;10.00;101164;;;;552763;256;24178;-83
2022/10/28 00:46:42;;;;;;;24.87;15.00;;;10.70;99.90;10.00;101163;;;;552543;256;24195;-81
2022/10/28 00:49:28;;;;;;;23.67;15.27;;;10.70;99.90;10.10;101153;;;;562907;251;24130;-82
2022/10/28 00:52:09;;;;;;;25.97;14.63;;;10.80;99.90;10.10;101152;;;;552595;256;24261;-82
2022/10/28 00:54:37;;;;;;;27.83;14.13;;;10.80;99.90;10.10;101151;;;;552683;255;24144;-83
2022/10/28 00:57:02;;;;;;;25.03;15.80;;;10.90;99.90;10.20;101150;;;;552924;255;24147;-81
2022/10/28 00:59:29;;;;;;;25.23;14.80;;;10.90;99.90;10.20;101150;;;;562882;249;24169;-81
2022/10/28 01:01:58;;;;;;;23.90;15.17;;;10.90;99.90;10.20;101148;;;;571981;247;24121;-83
2022/10/28 01:04:29;;;;;;;25.50;15.33;;;10.90;99.90;10.20;101150;;;;553552;255;24140;-81
2022/10/28 01:06:55;;;;;;;28.07;16.30;;;10.90;99.90;10.20;101145;;;;552691;255;24163;-81
2022/10/28 01:09:27;;;;;;;23.37;15.20;;;11.00;99.90;10.30;101143;;;;569767;249;24163;-81
2022/10/28 01:11:58;;;;;;;26.30;14.70;;;11.00;99.90;10.30;101145;;;;552150;256;24175;-81
2022/10/28 01:14:45;;;;;;;22.50;15.33;;;11.00;99.90;10.30;101147;;;;562445;251;24143;-80
2022/10/28 01:17:30;;;;;;;23.87;14.33;;;11.00;99.90;10.40;101148;;;;554859;256;24166;-80
2022/10/28 01:20:07;;;;;;;24.77;15.33;;;11.00;99.90;10.40;101142;;;;571087;251;24174;-80
2022/10/28 01:22:47;;;;;;;31.20;15.30;;;11.10;99.90;10.40;101142;;;;551567;256;24178;-80
2022/10/28 01:25:33;;;;;;;21.87;16.47;;;11.10;99.90;10.40;101143;;;;562613;251;24125;-80
2022/10/28 01:28:22;;;;;;;27.57;15.60;;;11.10;99.90;10.40;101128;;;;551792;256;24172;-80
2022/10/28 01:30:55;;;;;;;24.77;15.73;;;11.10;99.90;10.40;101136;;;;562418;251;25283;-81
2022/10/28 01:33:53;;;;;;;29.37;16.13;;;11.10;99.90;10.50;101132;;;;560158;253;24198;-80
2022/10/28 01:36:32;;;;;;;23.83;15.13;;;11.20;99.90;10.50;101132;;;;562406;251;24115;-81
2022/10/28 01:39:28;;;;;;;22.10;15.10;;;11.10;99.90;10.50;101137;;;;552165;256;24193;-81
2022/10/28 01:42:08;;;;;;;23.43;15.93;;;11.20;99.90;10.50;101126;;;;562709;251;24146;-80
2022/10/28 01:45:01;;;;;;;25.17;15.03;;;11.20;99.90;10.50;101126;;;;548166;256;24477;-80
2022/10/28 01:47:38;;;;;;;22.87;14.70;;;11.20;99.90;10.50;101121;;;;560445;251;24166;-81
2022/10/28 01:50:21;;;;;;;22.47;14.23;;;11.20;99.90;10.50;101116;;;;552082;256;24193;-81
2022/10/28 01:52:52;;;;;;;25.17;15.70;;;11.20;99.90;10.50;101112;;;;562742;251;24160;-80
2022/10/28 01:55:23;;;;;;;23.67;15.80;;;11.20;99.90;10.50;101114;;;;552553;256;24159;-81
2022/10/28 01:57:51;;;;;;;27.17;15.37;;;11.20;99.90;10.50;101109;;;;563316;251;24120;-81
2022/10/28 02:00:22;;;;;;;24.60;15.53;;;11.20;99.90;10.40;101101;;;;552309;256;24209;-81
2022/10/28 02:02:48;;;;;;;24.90;15.87;;;11.10;99.90;10.40;101103;;;;562874;251;24127;-81
2022/10/28 02:05:34;;;;;;;25.83;15.23;;;11.10;99.90;10.40;101107;;;;552718;256;24192;-82
2022/10/28 02:08:17;;;;;;;22.37;15.50;;;11.10;99.90;10.40;101104;;;;571243;251;24187;-82
2022/10/28 02:11:00;;;;;;;26.07;15.43;;;11.10;99.90;10.40;101100;;;;551918;256;24165;-82
2022/10/28 02:13:33;;;;;;;25.97;15.07;;;11.00;99.90;10.30;101090;;;;564815;250;24122;-81
2022/10/28 02:16:10;;;;;;;21.30;15.57;;;11.00;99.90;10.40;101099;;;;553965;255;24143;-80
2022/10/28 02:18:44;;;;;;;25.60;16.30;;;11.00;99.90;10.30;101095;;;;563831;251;24194;-82
2022/10/28 02:21:20;;;;;;;22.97;14.87;;;11.00;99.90;10.30;101088;;;;570837;248;24107;-82
2022/10/28 02:23:48;;;;;;;21.77;14.20;;;11.00;99.90;10.30;101085;;;;553652;256;24154;-81
2022/10/28 02:26:22;;;;;;;27.33;16.13;;;11.00;99.90;10.40;101082;;;;553591;256;24151;-83
2022/10/28 02:29:17;;;;;;;25.77;14.70;;;11.00;99.90;10.40;101084;;;;570844;247;24165;-83
2022/10/28 02:31:48;;;;;;;19.10;13.80;;;11.00;99.90;10.30;101085;;;;557801;248;24111;-83
2022/10/28 02:34:18;;;;;;;29.63;14.27;;;11.00;99.90;10.30;101081;;;;557411;256;24169;-82
2022/10/28 02:36:46;;;;;;;19.73;13.63;;;11.00;99.90;10.20;101084;;;;552222;256;24165;-81
2022/10/28 02:39:14;;;;;;;20.97;13.97;;;10.90;99.90;10.20;101077;;;;562810;251;24113;-80
2022/10/28 02:41:54;;;;;;;21.97;14.47;;;10.90;99.90;10.10;101080;;;;552449;256;24177;-81
2022/10/28 02:44:31;;;;;;;19.90;13.97;;;10.80;99.90;10.10;101078;;;;569323;249;24151;-81
2022/10/28 02:47:02;;;;;;;21.00;13.27;;;10.70;99.90;10.10;101068;;;;552458;256;24148;-82
2022/10/28 02:49:30;;;;;;;19.10;13.03;;;10.70;99.90;10.10;101071;;;;569132;250;24202;-81
2022/10/28 02:51:58;;;;;;;23.10;14.37;;;10.70;99.90;10.10;101065;;;;552256;256;24148;-82
2022/10/28 02:54:47;;;;;;;29.40;22.63;;;10.70;99.90;10.10;101068;;;;557683;251;35503;-82
2022/10/28 02:57:19;;;;;;;23.30;15.73;;;10.70;99.90;10.10;101062;;;;537531;263;24170;-81
2022/10/28 02:59:47;;;;;;;30.30;22.60;;;10.70;99.90;10.00;101056;;;;531922;263;35942;-82
2022/10/28 03:02:15;;;;;;;25.47;15.90;;;10.70;99.90;10.00;101055;;;;552063;246;24113;-83
2022/10/28 03:04:46;;;;;;;17.13;13.47;;;10.60;99.90;9.90;101052;;;;573284;246;24130;-83
2022/10/28 03:07:12;;;;;;;19.90;13.40;;;10.60;99.90;9.90;101049;;;;573568;246;24086;-83
2022/10/28 03:09:41;;;;;;;19.93;12.33;;;10.60;99.90;9.80;101054;;;;574047;246;24217;-84
2022/10/28 03:12:14;;;;;;;20.17;12.70;;;10.50;99.90;9.80;101045;;;;574004;246;24106;-83
2022/10/28 03:14:38;;;;;;;18.30;12.67;;;10.40;99.90;9.70;101042;;;;573586;246;24124;-83
2022/10/28 03:17:06;;;;;;;18.33;12.77;;;10.40;99.90;9.70;101044;;;;574037;246;24169;-83
2022/10/28 03:19:35;;;;;;;19.87;13.80;;;10.40;99.90;9.70;101048;;;;574009;246;24136;-82
2022/10/28 03:22:09;;;;;;;21.80;13.47;;;10.30;99.90;9.70;101045;;;;573773;246;24122;-82
2022/10/28 03:24:33;;;;;;;22.93;12.97;;;10.30;99.90;9.70;101038;;;;574545;245;25171;-83
2022/10/28 03:27:05;;;;;;;20.53;13.93;;;10.30;99.90;9.70;101037;;;;581061;246;24072;-81
2022/10/28 03:29:30;;;;;;;21.77;13.27;;;10.40;99.90;9.70;101028;;;;582669;246;24096;-82
2022/10/28 03:32:00;;;;;;;20.90;14.00;;;10.40;99.90;9.70;101034;;;;574331;246;24097;-82
2022/10/28 03:34:28;;;;;;;22.23;13.60;;;10.40;99.90;9.80;101029;;;;574656;246;24140;-82
2022/10/28 03:36:56;;;;;;;19.77;12.77;;;10.40;99.90;9.80;101024;;;;574509;246;24105;-81
2022/10/28 03:39:24;;;;;;;21.03;14.67;;;10.50;99.90;9.90;101021;;;;574667;246;24141;-81
2022/10/28 03:41:52;;;;;;;18.83;14.13;;;10.50;99.90;9.90;101028;;;;574649;246;24057;-81
2022/10/28 03:44:20;;;;;;;22.77;13.50;;;10.60;99.90;10.00;101032;;;;574830;246;24101;-82
2022/10/28 03:46:48;;;;;;;22.17;15.03;;;10.60;99.90;10.00;101029;;;;581024;246;24121;-82
2022/10/28 03:49:15;;;;;;;21.33;14.87;;;10.60;99.90;10.00;101025;;;;574673;246;24090;-82
2022/10/28 03:51:43;;;;;;;23.17;15.60;;;10.70;99.90;10.00;101026;;;;574360;246;24143;-81
2022/10/28 03:54:11;;;;;;;24.03;15.47;;;10.60;99.90;9.90;101026;;;;573934;246;24094;-82
2022/10/28 03:56:39;;;;;;;22.93;14.07;;;10.60;99.90;9.90;101028;;;;574249;246;24188;-81
2022/10/28 03:59:10;;;;;;;24.13;14.77;;;10.60;99.90;9.90;101015;;;;573766;246;24167;-82
2022/10/28 04:01:38;;;;;;;19.33;15.20;;;10.50;99.90;9.80;101013;;;;573459;246;24095;-81
2022/10/28 04:04:06;;;;;;;22.33;15.13;;;10.50;99.90;9.70;101009;;;;573233;246;24082;-82
2022/10/28 04:06:34;;;;;;;20.37;16.07;;;10.40;99.90;9.70;101002;;;;580261;246;24110;-82
2022/10/28 04:09:02;;;;;;;22.87;15.67;;;10.40;99.90;9.60;101012;;;;573601;246;24158;-82
2022/10/28 04:11:30;;;;;;;32.83;23.87;;;10.30;99.90;9.60;101009;;;;568668;246;35471;-82
2022/10/28 04:13:58;;;;;;;27.50;17.73;;;10.30;99.90;9.60;101008;;;;573231;246;24126;-82
2022/10/28 04:16:25;;;;;;;27.17;18.53;;;10.30;99.90;9.60;100999;;;;573159;246;24097;-82
2022/10/28 04:18:53;;;;;;;30.90;16.30;;;10.30;99.90;9.50;101006;;;;573464;246;24082;-82
2022/10/28 04:21:21;;;;;;;29.90;16.97;;;10.30;99.90;9.50;101000;;;;573185;246;24105;-82
2022/10/28 04:23:49;;;;;;;25.77;15.13;;;10.20;99.90;9.50;101000;;;;579699;246;24194;-82
2022/10/28 04:26:17;;;;;;;22.60;15.50;;;10.20;99.90;9.50;100992;;;;572988;246;24141;-82
2022/10/28 04:28:45;;;;;;;36.10;16.63;;;10.20;99.90;9.50;100987;;;;573035;246;24113;-82
2022/10/28 04:31:14;;;;;;;54.60;16.70;;;10.20;99.90;9.50;100981;;;;573239;246;24155;-82
2022/10/28 04:33:42;;;;;;;45.57;14.53;;;10.10;99.90;9.50;100971;;;;573046;246;24128;-81
2022/10/28 04:36:10;;;;;;;49.40;15.00;;;10.20;99.90;9.50;100968;;;;574236;245;24130;-81
2022/10/28 04:38:38;;;;;;;56.77;17.27;;;10.10;99.90;9.40;100974;;;;574136;246;24099;-81
2022/10/28 04:41:06;;;;;;;59.50;16.17;;;10.10;99.90;9.40;100967;;;;574123;246;24132;-82
2022/10/28 04:43:34;;;;;;;54.23;15.83;;;10.10;99.90;9.40;100962;;;;574126;246;24082;-83
2022/10/28 04:46:04;;;;;;;43.53;14.53;;;10.10;99.90;9.40;100965;;;;574112;246;24076;-82
2022/10/28 04:48:30;;;;;;;47.70;15.80;;;10.10;99.90;9.40;100971;;;;573956;246;24083;-83
2022/10/28 04:50:59;;;;;;;58.63;15.77;;;10.10;99.90;9.40;100967;;;;573564;246;24102;-82
2022/10/28 04:53:26;;;;;;;47.13;16.23;;;10.00;99.90;9.30;100967;;;;573427;246;24185;-82
2022/10/28 04:55:57;;;;;;;63.90;17.03;;;10.00;99.90;9.30;100958;;;;573668;246;24143;-82
2022/10/28 04:58:26;;;;;;;73.60;17.20;;;10.00;99.90;9.30;100952;;;;582430;245;24203;-82
2022/10/28 05:00:55;;;;;;;73.17;18.67;;;10.00;99.90;9.30;100951;;;;573735;246;24126;-82
2022/10/28 05:03:26;;;;;;;67.77;18.23;;;10.00;99.90;9.30;100952;;;;573739;246;24122;-82
2022/10/28 05:05:50;;;;;;;48.87;17.80;;;10.00;99.90;9.30;100948;;;;573721;246;24093;-82
2022/10/28 05:08:18;;;;;;;59.40;17.80;;;10.00;99.90;9.30;100941;;;;574185;246;24085;-82
2022/10/28 05:10:49;;;;;;;56.60;17.37;;;10.00;99.90;9.30;100940;;;;574179;242;24122;-81
2022/10/28 05:13:14;;;;;;;122.43;20.40;;;10.00;99.90;9.40;100934;;;;573474;246;24095;-81
2022/10/28 05:15:42;;;;;;;102.30;20.00;;;10.10;99.90;9.40;100936;;;;573389;246;24085;-82
2022/10/28 05:18:11;;;;;;;69.00;20.80;;;10.10;99.90;9.40;100941;;;;573520;246;24121;-81
2022/10/28 05:20:43;;;;;;;60.20;18.43;;;10.10;99.90;9.40;100934;;;;573411;246;24151;-82
2022/10/28 05:23:07;;;;;;;68.87;33.58;;;10.10;99.90;9.40;100945;;;;568035;246;35296;-82
2022/10/28 05:25:35;;;;;;;37.33;23.10;;;10.10;99.90;9.50;100951;;;;573673;246;24089;-81
2022/10/28 05:28:06;;;;;;;48.00;21.00;;;10.20;99.90;9.50;100950;;;;573138;246;24135;-82
2022/10/28 05:30:31;;;;;;;53.20;20.13;;;10.20;99.90;9.60;100940;;;;573117;246;24093;-82
2022/10/28 05:33:01;;;;;;;52.50;22.70;;;10.30;99.90;9.60;100947;;;;573163;246;24137;-82
2022/10/28 05:35:28;;;;;;;34.97;19.10;;;10.30;99.90;9.60;100934;;;;573489;246;24130;-82
2022/10/28 05:37:56;;;;;;;132.93;35.63;;;10.30;99.90;9.60;100932;;;;568369;246;35417;-81
2022/10/28 05:40:24;;;;;;;60.33;24.90;;;10.30;99.90;9.60;100934;;;;573476;246;24099;-83
2022/10/28 05:42:52;;;;;;;97.17;23.87;;;10.30;99.90;9.60;100930;;;;573541;246;24171;-82
2022/10/28 05:45:21;;;;;;;53.20;22.03;;;10.40;99.90;9.70;100924;;;;573580;246;24118;-82
2022/10/28 05:47:49;;;;;;;49.57;21.23;;;10.40;99.90;9.70;100920;;;;575014;245;24096;-82
2022/10/28 05:50:21;;;;;;;122.60;23.53;;;10.30;99.90;9.70;100912;;;;574449;246;24118;-82
2022/10/28 05:52:47;;;;;;;120.13;25.53;;;10.40;99.90;9.70;100914;;;;573853;246;24154;-82
2022/10/28 05:55:18;;;;;;;111.53;21.90;;;10.40;99.90;9.70;100923;;;;574194;246;24230;-82
2022/10/28 05:57:43;;;;;;;255.70;26.63;;;10.40;99.90;9.70;100917;;;;573200;246;24148;-81
2022/10/28 06:00:12;;;;;;;168.17;24.23;;;10.40;99.90;9.80;100910;;;;574731;246;24136;-82
2022/10/28 06:02:40;;;;;;;148.40;24.30;;;10.40;99.90;9.80;100925;;;;574973;246;24083;-81
2022/10/28 06:05:10;;;;;;;248.73;26.60;;;10.50;99.90;9.80;100931;;;;554071;255;24138;-82
2022/10/28 06:07:38;;;;;;;227.03;25.03;;;10.50;99.90;9.80;100932;;;;563620;251;24111;-82
2022/10/28 06:10:06;;;;;;;236.07;25.37;;;10.50;99.90;9.80;100927;;;;563564;251;24117;-82
2022/10/28 06:12:34;;;;;;;175.63;23.87;;;10.50;99.90;9.90;100926;;;;571931;251;24103;-84
2022/10/28 06:15:02;;;;;;;207.47;26.67;;;10.50;99.90;9.90;100930;;;;562494;251;24127;-82
2022/10/28 06:17:33;;;;;;;173.37;23.03;;;10.60;99.90;9.90;100936;;;;571175;248;24182;-82
2022/10/28 06:19:59;;;;;;;178.00;25.73;;;10.60;99.90;10.00;100943;;;;571180;248;24235;-82
2022/10/28 06:22:31;;;;;;;227.20;26.67;;;10.70;99.90;10.00;100931;;;;552545;256;24157;-82
2022/10/28 06:24:55;;;;;;;262.63;27.93;;;10.70;99.90;10.00;100935;;;;562405;251;24117;-82
2022/10/28 06:27:23;;;;;;;290.13;29.57;;;10.70;99.90;10.00;100932;;;;552329;256;24149;-83
2022/10/28 06:29:51;;;;;;;258.83;29.33;;;10.70;99.90;10.00;100935;;;;562479;251;24190;-82
2022/10/28 06:32:19;;;;;;;272.80;28.87;;;10.70;99.90;10.10;100928;;;;552252;256;25245;-82
2022/10/28 06:34:50;;;;;;;224.73;27.03;;;10.80;99.90;10.10;100924;;;;562669;251;24169;-83
2022/10/28 06:37:18;;;;;;;245.57;27.67;;;10.80;99.90;10.10;100920;;;;552317;256;24164;-83
2022/10/28 06:39:50;;;;;;;234.77;26.50;;;10.80;99.90;10.20;100911;;;;562771;247;24116;-82
2022/10/28 06:42:17;;;;;;;243.10;26.37;;;10.80;99.90;10.20;100913;;;;553068;256;24202;-82
2022/10/28 06:44:44;;;;;;;206.27;23.30;;;10.90;99.90;10.20;100912;;;;571902;247;24108;-83
2022/10/28 06:47:12;;;;;;;218.47;26.27;;;10.90;99.90;10.20;100911;;;;553163;256;24149;-81
2022/10/28 06:49:40;;;;;;;297.27;27.43;;;10.90;99.90;10.30;100916;;;;563142;251;24105;-81
2022/10/28 06:52:08;;;;;;;263.30;26.40;;;10.90;99.90;10.40;100917;;;;553244;256;24173;-83
2022/10/28 06:54:36;;;;;;;223.90;26.70;;;11.00;99.90;10.40;100925;;;;571401;251;24142;-81
2022/10/28 06:57:05;;;;;;;292.00;28.20;;;11.10;99.90;10.50;100917;;;;551850;256;24214;-82
2022/10/28 06:59:33;;;;;;;251.10;29.10;;;11.20;99.90;10.60;100922;;;;563687;250;24124;-82
2022/10/28 07:02:05;;;;;;;211.10;25.83;;;11.30;99.90;10.70;100914;;;;552580;255;24139;-84
2022/10/28 07:04:29;;;;;;;253.00;27.23;;;11.40;99.90;10.70;100911;;;;569211;250;24151;-83
2022/10/28 07:07:01;;;;;;;205.90;26.43;;;11.40;99.90;10.70;100925;;;;552306;256;24148;-83
2022/10/28 07:09:25;;;;;;;158.83;28.40;;;11.40;99.90;10.70;100913;;;;565130;251;24127;-81
2022/10/28 07:11:53;;;;;;;164.30;26.53;;;11.40;99.90;10.70;100907;;;;552416;256;24150;-82
2022/10/28 07:14:21;;;;;;;356.13;49.53;;;11.30;99.90;10.70;100905;;;;557582;251;35433;-82
2022/10/28 07:16:50;;;;;;;361.63;39.43;;;11.40;99.90;10.80;100905;;;;552817;256;24193;-81
2022/10/28 07:19:17;;;;;;;204.43;33.93;;;11.40;99.90;10.80;100908;;;;562559;251;24154;-81
2022/10/28 07:21:45;;;;;;;237.10;34.50;;;11.50;99.90;11.00;100916;;;;552366;256;24167;-83
2022/10/28 07:24:13;;;;;;;184.37;31.17;;;11.60;99.90;11.10;100915;;;;562489;251;24125;-82
2022/10/28 07:26:44;;;;;;;166.53;30.70;;;11.70;99.90;11.30;100923;;;;552355;256;24209;-82
2022/10/28 07:29:09;;;;;;;147.27;28.47;;;11.90;99.90;11.40;100917;;;;562223;251;24173;-82
2022/10/28 07:31:37;;;;;;;87.27;30.63;;;12.00;99.90;11.60;100916;;;;551933;256;24254;-82
2022/10/28 07:34:05;;;;;;;79.13;32.30;;;12.20;99.90;11.70;100927;;;;562252;251;24151;-82
2022/10/28 07:36:33;;;;;;;66.73;29.70;;;12.40;99.90;11.80;100922;;;;552184;256;24304;-83
2022/10/28 07:39:01;;;;;;;70.27;30.03;;;12.40;99.90;11.90;100923;;;;569006;251;24186;-81
2022/10/28 07:41:30;;;;;;;57.80;29.17;;;12.50;99.90;11.90;100915;;;;551971;256;24201;-82
2022/10/28 07:43:58;;;;;;;58.50;27.40;;;12.50;99.90;11.90;100922;;;;562270;251;24150;-82
2022/10/28 07:46:26;;;;;;;58.47;26.53;;;12.50;99.90;12.00;100920;;;;552045;256;24176;-81
2022/10/28 07:48:54;;;;;;;60.10;28.90;;;12.60;99.90;12.20;100926;;;;562355;251;24120;-81
2022/10/28 07:51:22;;;;;;;63.73;29.13;;;12.80;99.90;12.40;100917;;;;552233;256;24161;-82
2022/10/28 07:53:50;;;;;;;61.23;30.00;;;13.00;99.90;12.40;100922;;;;564566;251;24130;-81
2022/10/28 07:56:21;;;;;;;62.97;32.13;;;13.10;99.90;12.30;100917;;;;551985;256;24242;-83
2022/10/28 07:58:48;;;;;;;63.20;32.07;;;13.10;99.90;12.30;100924;;;;568958;250;24120;-83
2022/10/28 08:01:16;;;;;;;68.63;30.23;;;13.00;99.90;12.40;100913;;;;551906;256;24164;-82
2022/10/28 08:03:47;;;;;;;56.10;29.77;;;13.10;99.90;12.50;100918;;;;562495;251;24118;-81
2022/10/28 08:06:12;;;;;;;57.77;29.67;;;13.20;99.90;12.60;100909;;;;554560;255;24183;-82
2022/10/28 08:08:40;;;;;;;54.47;28.87;;;13.20;99.90;12.50;100906;;;;562357;247;25190;-81
2022/10/28 08:11:15;;;;;;;51.33;26.60;;;13.40;99.90;12.80;100905;;;;553892;255;24209;-82
2022/10/28 08:13:42;;;;;;;50.47;26.43;;;13.40;99.90;13.10;100903;;;;552100;255;24176;-82
2022/10/28 08:16:11;;;;;;;48.20;26.77;;;13.60;99.90;13.50;100901;;;;570041;251;24140;-81
2022/10/28 08:18:35;;;;;;;53.43;29.23;;;14.00;99.90;13.90;100901;;;;552740;256;24187;-82
2022/10/28 08:21:06;;;;;;;46.20;26.77;;;14.40;99.90;14.10;100903;;;;563056;251;24191;-83
2022/10/28 08:23:37;;;;;;;43.63;25.93;;;14.70;99.90;14.30;100894;;;;552706;256;24147;-82
2022/10/28 08:26:02;;;;;;;39.60;24.10;;;15.00;99.90;14.20;100896;;;;569532;249;24110;-81
2022/10/28 08:28:34;;;;;;;35.60;23.47;;;15.00;99.90;14.50;100894;;;;552760;256;24176;-82
2022/10/28 08:31:01;;;;;;;38.43;23.63;;;15.20;99.90;14.90;100892;;;;562502;251;24118;-82
2022/10/28 08:33:29;;;;;;;31.07;22.30;;;15.60;99.90;15.20;100892;;;;552936;255;24147;-81
2022/10/28 08:35:58;;;;;;;30.23;20.27;;;15.90;99.90;15.90;100899;;;;558729;255;24157;-81
2022/10/28 08:38:28;;;;;;;35.13;22.57;;;16.50;99.90;16.60;100901;;;;562217;251;24127;-83
2022/10/28 08:41:34;;;;;;;29.27;22.80;;;17.20;99.90;18.10;100904;;;;551913;256;24156;-82
2022/10/28 08:44:31;;;;;;;28.47;21.17;;;18.50;99.90;19.50;100901;;;;562465;251;24151;-83
2022/10/28 08:47:39;;;;;;;22.87;19.53;;;20.10;99.90;21.20;100891;;;;552046;256;24149;-82
2022/10/28 08:50:13;;;;;;;23.47;17.83;;;21.80;99.90;22.50;100881;;;;562153;251;24249;-81
2022/10/28 08:52:48;;;;;;;18.73;16.80;;;24.30;99.90;23.40;100867;;;;569409;248;24103;-83
2022/10/28 08:55:19;;;;;;;18.70;16.70;;;24.20;99.90;24.70;100866;;;;551452;256;23166;-82
2022/10/28 08:57:53;;;;;;;20.10;17.47;;;26.60;99.90;25.70;100858;;;;551987;256;23186;-81
2022/10/28 09:00:28;;;;;;;19.47;16.60;;;27.60;99.90;26.80;100861;;;;559022;251;23166;-82
2022/10/28 09:03:01;;;;;;;18.43;16.57;;;27.60;99.90;27.70;100857;;;;551791;256;23206;-83
2022/10/28 09:05:32;;;;;;;21.63;15.97;;;28.60;99.80;28.20;100867;;;;561775;251;24149;-84
2022/10/28 09:08:03;;;;;;;16.47;14.80;;;29.30;95.90;28.40;100858;;;;569545;248;23120;-83
2022/10/28 09:10:39;;;;;;;18.52;15.77;;;29.60;92.00;28.00;100856;;;;551840;256;23258;-83
2022/10/28 09:13:32;;;;;;;18.83;16.93;;;29.30;91.00;27.10;100847;;;;551597;256;24170;-84
2022/10/28 09:16:20;;;;;;;23.37;16.00;;;28.50;90.50;25.90;100848;;;;562004;251;23123;-84
2022/10/28 09:18:51;;;;;;;18.43;16.53;;;27.10;91.90;23.70;100843;;;;551181;256;23200;-84
2022/10/28 09:21:31;;;;;;;22.03;15.50;;;25.40;94.00;22.20;100843;;;;562630;250;23141;-83
2022/10/28 09:24:00;;;;;;;19.43;15.40;;;23.80;97.30;21.00;100824;;;;574294;248;24091;-84
2022/10/28 09:26:55;;;;;;;21.90;16.80;;;22.40;99.90;20.30;100837;;;;552195;255;24194;-83
2022/10/28 09:29:38;;;;;;;19.27;16.10;;;20.60;99.90;19.70;100847;;;;552831;255;24154;-83
2022/10/28 09:32:12;;;;;;;18.27;15.97;;;20.60;99.90;19.20;100832;;;;562300;251;24111;-83
2022/10/28 09:35:01;;;;;;;22.10;15.83;;;20.00;99.90;18.90;100830;;;;553149;255;24156;-83
2022/10/28 09:37:34;;;;;;;21.33;16.67;;;19.60;99.90;18.80;100831;;;;562947;251;23275;-83
2022/10/28 09:40:17;;;;;;;19.77;16.13;;;19.10;99.90;18.50;100834;;;;552460;256;24182;-84
2022/10/28 09:43:09;;;;;;;19.63;16.47;;;19.10;99.90;18.40;100833;;;;562760;251;24241;-84
2022/10/28 09:45:34;;;;;;;19.83;14.83;;;18.90;99.90;18.30;100830;;;;573487;248;24121;-83
2022/10/28 09:48:17;;;;;;;22.92;20.05;;;18.80;99.90;18.20;100822;;;;547537;256;35734;-84
2022/10/28 09:50:49;;;;;;;20.07;16.73;;;18.80;99.90;18.20;100828;;;;547883;256;24208;-84
2022/10/28 09:53:43;;;;;;;21.90;17.13;;;18.70;99.90;18.10;100820;;;;562361;247;25224;-83
2022/10/28 09:56:11;;;;;;;18.97;15.30;;;18.70;99.90;18.10;100820;;;;562812;248;23139;-84
2022/10/28 09:58:39;;;;;;;20.70;14.43;;;18.70;99.90;18.20;100820;;;;550761;256;24141;-83
2022/10/28 10:01:07;;;;;;;18.07;13.83;;;18.70;99.90;18.30;100817;;;;552064;256;24133;-83
2022/10/28 10:03:38;;;;;;;16.90;13.73;;;18.80;99.90;18.40;100815;;;;562498;247;25200;-83
2022/10/28 10:06:04;;;;;;;21.13;15.17;;;18.90;99.90;18.50;100812;;;;551962;256;24162;-82
2022/10/28 10:08:36;;;;;;;17.13;13.20;;;19.10;99.90;18.70;100808;;;;562626;251;24155;-84
2022/10/28 10:11:00;;;;;;;17.03;13.87;;;19.30;99.90;18.90;100805;;;;551504;256;24157;-83
2022/10/28 10:13:28;;;;;;;19.20;14.97;;;19.40;99.90;18.90;100815;;;;559585;251;24170;-82
2022/10/28 10:16:11;;;;;;;16.57;14.23;;;19.50;99.90;19.00;100813;;;;578651;248;24230;-81
2022/10/28 10:18:45;;;;;;;18.57;14.00;;;19.60;99.90;19.10;100811;;;;547825;256;24192;-82
2022/10/28 10:21:10;;;;;;;21.05;17.75;;;19.70;99.90;19.10;100808;;;;566548;251;35603;-82
2022/10/28 10:23:35;;;;;;;21.43;16.33;;;19.70;99.90;19.20;100811;;;;551854;256;24133;-82
2022/10/28 10:26:08;;;;;;;18.20;16.30;;;19.70;99.90;19.20;100817;;;;568908;249;24129;-82
2022/10/28 10:28:36;;;;;;;18.83;15.57;;;19.80;99.90;19.40;100812;;;;552310;256;24150;-82
2022/10/28 10:31:04;;;;;;;21.17;16.50;;;19.90;99.90;19.40;100807;;;;562413;251;24137;-83
2022/10/28 10:33:38;;;;;;;18.63;16.77;;;20.10;99.90;19.60;100811;;;;561128;255;23249;-83
2022/10/28 10:36:14;;;;;;;21.10;16.57;;;20.10;99.90;19.80;100808;;;;572589;251;24153;-84
2022/10/28 10:38:53;;;;;;;23.83;16.57;;;20.30;99.90;19.80;100805;;;;553820;255;24140;-84
2022/10/28 10:41:36;;;;;;;23.23;17.23;;;20.40;99.90;19.60;100805;;;;563948;251;23147;-84
2022/10/28 10:44:22;;;;;;;21.27;16.60;;;20.00;99.90;19.30;100795;;;;573259;251;24153;-83
2022/10/28 10:47:00;;;;;;;17.63;15.73;;;20.00;99.90;19.00;100796;;;;571877;251;23290;-82
2022/10/28 10:49:31;;;;;;;16.53;14.80;;;19.70;99.90;18.90;100784;;;;578805;248;24081;-84
2022/10/28 10:52:21;;;;;;;21.47;15.93;;;19.50;99.90;18.70;100787;;;;560788;256;24219;-82
2022/10/28 10:55:07;;;;;;;20.83;17.17;;;19.30;99.90;18.40;100791;;;;551187;256;23172;-83
2022/10/28 10:57:35;;;;;;;22.77;16.30;;;19.00;99.90;18.20;100791;;;;562106;251;24135;-82
2022/10/28 11:00:03;;;;;;;24.57;17.10;;;18.80;99.90;18.20;100792;;;;552463;256;24236;-82
2022/10/28 11:02:31;;;;;;;26.77;17.90;;;18.70;99.90;18.20;100790;;;;562560;251;24100;-83
2022/10/28 11:05:01;;;;;;;21.03;17.43;;;18.70;99.90;18.20;100780;;;;579597;248;24085;-82
2022/10/28 11:07:31;;;;;;;20.97;16.03;;;18.70;99.90;18.20;100779;;;;571160;248;24112;-81
2022/10/28 11:09:59;;;;;;;21.20;17.90;;;18.80;99.90;18.20;100778;;;;565265;251;24147;-82
2022/10/28 11:12:38;;;;;;;23.13;16.87;;;18.70;99.90;18.10;100776;;;;552479;256;24164;-82
2022/10/28 11:15:17;;;;;;;25.23;16.57;;;18.70;99.90;18.20;100774;;;;562706;251;24109;-81